Lewisville's Hourly Summary for Friday, May 11, 2018
Hour Temp
(f)
RH
(%)
Solar Rad.
(MJ/m2)
Rainfall
(in)
Wind
(mph)
5/11/2018 12:00 AM 76 54 0 0 11.46
5/11/2018 1:00 AM 75 61 0 0 12.55
5/11/2018 2:00 AM 73 67 0 0 12.53
5/11/2018 3:00 AM 72 71 0 0 11.28
5/11/2018 4:00 AM 71 76 0 0 10.78
5/11/2018 5:00 AM 70 79 0 0 10.26
5/11/2018 6:00 AM 69 79 0.03 0 10.04
5/11/2018 7:00 AM 70 76 0.29 0 9.66
5/11/2018 8:00 AM 72 70 0.72 0 11.57
5/11/2018 9:00 AM 74 61 1.43 0 14.18
5/11/2018 10:00 AM 77 57 2.41 0 15.04
5/11/2018 11:00 AM 79 50 2.79 0 14.97
5/11/2018 12:00 PM 81 48 2.95 0 14.11
5/11/2018 1:00 PM 83 44 2.96 0 13.41
5/11/2018 2:00 PM 84 42 2.97 0 14.82
5/11/2018 3:00 PM 85 41 2.75 0 14.93
5/11/2018 4:00 PM 86 40 2.26 0 14.06
5/11/2018 5:00 PM 86 40 1.64 0 14.35
5/11/2018 6:00 PM 85 41 0.97 0 12.5
5/11/2018 7:00 PM 84 42 0.33 0 13.43
5/11/2018 8:00 PM 82 44 0.01 0 10.9
5/11/2018 9:00 PM 81 45 0 0 9.9
5/11/2018 10:00 PM 79 49 0 0 9.09
5/11/2018 11:00 PM 78 52 0 0 9.43
Data Summary 78 55 24.51 0.00 12.30